createdAt,value
2018-07-03T00:00:08.187Z,94.60
2018-07-03T00:02:36.691Z,94.80
2018-07-03T00:05:05.407Z,94.80
2018-07-03T00:07:33.914Z,93.90
2018-07-03T00:10:02.374Z,94.50
2018-07-03T00:12:31.092Z,94.60
2018-07-03T00:14:59.726Z,94.50
2018-07-03T00:17:28.185Z,94.60
2018-07-03T00:19:57.639Z,94.80
2018-07-03T00:22:26.098Z,94.60
2018-07-03T00:24:54.544Z,94.80
2018-07-03T00:27:23.000Z,95.00
2018-07-03T00:32:20.617Z,95.10
2018-07-03T00:34:49.085Z,94.60
2018-07-03T00:37:17.530Z,94.90
2018-07-03T00:39:46.018Z,95.20
2018-07-03T00:42:14.470Z,95.10
2018-07-03T00:44:42.894Z,95.20
2018-07-03T00:47:11.696Z,95.30
2018-07-03T00:49:40.143Z,95.50
2018-07-03T00:52:08.578Z,95.40
2018-07-03T00:54:37.026Z,95.30
2018-07-03T00:59:33.666Z,95.60
2018-07-03T01:02:02.411Z,95.50
2018-07-03T01:04:30.830Z,95.70
2018-07-03T01:06:59.254Z,95.80
2018-07-03T01:09:30.738Z,95.70
2018-07-03T01:11:59.203Z,95.70
2018-07-03T01:14:27.639Z,95.70
2018-07-03T01:16:56.692Z,95.80
2018-07-03T01:19:25.153Z,95.60
2018-07-03T01:21:53.627Z,96.00
2018-07-03T01:24:23.001Z,95.80
2018-07-03T01:26:52.575Z,95.80
2018-07-03T01:29:21.063Z,96.00
2018-07-03T01:31:49.526Z,95.90
2018-07-03T01:34:17.960Z,95.90
2018-07-03T01:36:46.357Z,95.50
2018-07-03T01:39:14.922Z,95.60
2018-07-03T01:44:11.495Z,95.80
2018-07-03T01:46:39.910Z,95.80
2018-07-03T01:49:10.601Z,96.00
2018-07-03T01:51:39.038Z,95.90
2018-07-03T01:54:07.733Z,95.40
2018-07-03T01:56:36.170Z,95.30
2018-07-03T01:59:04.933Z,95.60
2018-07-03T02:01:33.391Z,95.50
2018-07-03T02:04:01.818Z,95.60
2018-07-03T02:06:30.241Z,95.80
2018-07-03T02:08:58.692Z,95.90
2018-07-03T02:11:27.171Z,95.70
2018-07-03T02:13:55.587Z,96.10
2018-07-03T02:16:24.014Z,96.10
2018-07-03T02:18:54.560Z,96.00
2018-07-03T02:21:22.978Z,96.20
2018-07-03T02:23:51.445Z,96.30
2018-07-03T02:26:19.886Z,96.50
2018-07-03T02:28:48.317Z,96.10
2018-07-03T02:31:16.739Z,96.20
2018-07-03T02:33:45.234Z,96.70
2018-07-03T02:36:13.682Z,96.90
2018-07-03T02:38:42.164Z,96.90
2018-07-03T02:43:38.766Z,97.20
2018-07-03T02:46:07.618Z,97.30
2018-07-03T02:51:04.213Z,97.40
2018-07-03T02:53:32.665Z,97.40
2018-07-03T02:56:01.129Z,97.20
2018-07-03T02:58:29.602Z,97.10
2018-07-03T03:00:58.005Z,97.40
2018-07-03T03:05:54.803Z,97.90
2018-07-03T03:08:24.447Z,97.60
2018-07-03T03:10:53.150Z,97.50
2018-07-03T03:13:22.088Z,97.50
2018-07-03T03:15:50.875Z,97.60
2018-07-03T03:18:19.436Z,97.40
2018-07-03T03:20:47.882Z,97.00
2018-07-03T03:23:16.322Z,96.90
2018-07-03T03:25:44.742Z,96.90
2018-07-03T03:28:13.185Z,97.00
2018-07-03T03:30:41.618Z,96.90
2018-07-03T03:33:10.051Z,96.70
2018-07-03T03:35:38.480Z,96.40
2018-07-03T03:38:07.501Z,96.20
2018-07-03T03:40:36.164Z,96.10
2018-07-03T03:43:04.593Z,96.00
2018-07-03T03:45:33.017Z,96.40
2018-07-03T03:48:01.442Z,96.60
2018-07-03T03:50:29.865Z,96.50
2018-07-03T03:52:58.338Z,96.30
2018-07-03T03:55:26.781Z,96.40
2018-07-03T03:57:55.280Z,96.40
2018-07-03T04:00:23.742Z,96.70
2018-07-03T04:02:52.229Z,96.90
2018-07-03T04:05:20.692Z,96.80
2018-07-03T04:10:17.530Z,96.90
2018-07-03T04:12:46.166Z,96.80
2018-07-03T04:15:14.590Z,97.00
2018-07-03T04:17:43.294Z,97.50
2018-07-03T04:22:39.903Z,97.60
2018-07-03T04:25:08.310Z,96.50
2018-07-03T04:27:36.803Z,97.00
2018-07-03T04:30:05.758Z,97.00
2018-07-03T04:32:34.175Z,96.70
2018-07-03T04:35:02.654Z,96.30
2018-07-03T04:37:31.078Z,94.80
2018-07-03T04:39:59.775Z,91.70
2018-07-03T04:42:28.194Z,91.80
2018-07-03T04:44:57.078Z,90.70
2018-07-03T04:47:25.774Z,90.30
2018-07-03T04:49:54.434Z,88.80
2018-07-03T04:52:22.895Z,87.40
2018-07-03T04:54:51.371Z,86.40
2018-07-03T04:57:19.798Z,85.90
2018-07-03T04:59:48.241Z,86.70
2018-07-03T05:02:16.714Z,86.20
2018-07-03T05:04:45.186Z,86.50
2018-07-03T05:07:14.053Z,84.80
2018-07-03T05:09:42.505Z,83.10
2018-07-03T05:12:10.982Z,83.00
2018-07-03T05:14:39.454Z,84.10
2018-07-03T05:17:08.508Z,82.00
2018-07-03T05:19:37.217Z,84.00
2018-07-03T05:22:05.997Z,83.60
2018-07-03T05:24:35.648Z,81.10
2018-07-03T05:27:04.082Z,81.30
2018-07-03T05:29:32.564Z,80.20
2018-07-03T05:32:00.986Z,79.50
2018-07-03T05:34:29.430Z,80.10
2018-07-03T05:36:58.099Z,80.40
2018-07-03T05:39:26.542Z,80.00
2018-07-03T05:41:55.098Z,80.90
2018-07-03T05:44:23.589Z,81.70
2018-07-03T05:46:52.031Z,81.40
2018-07-03T05:49:20.494Z,81.50
2018-07-03T05:51:48.918Z,81.00
2018-07-03T05:54:17.374Z,80.50
2018-07-03T05:56:46.078Z,80.10
2018-07-03T06:01:42.669Z,77.20
2018-07-03T06:04:11.109Z,77.80
2018-07-03T06:06:39.569Z,76.60
2018-07-03T06:09:09.218Z,76.30
2018-07-03T06:11:37.766Z,74.30
2018-07-03T06:14:06.422Z,73.30
2018-07-03T06:16:35.344Z,72.80
2018-07-03T06:19:03.842Z,73.40
2018-07-03T06:21:32.365Z,73.00
2018-07-03T06:24:00.828Z,72.80
2018-07-03T06:26:29.512Z,72.90
2018-07-03T06:28:58.079Z,72.40
2018-07-03T06:31:26.632Z,71.50
2018-07-03T06:33:55.104Z,72.40
2018-07-03T06:36:24.248Z,74.30
2018-07-03T06:38:52.870Z,75.80
2018-07-03T06:41:21.438Z,75.80
2018-07-03T06:43:49.870Z,78.40
2018-07-03T06:46:19.283Z,81.60
2018-07-03T06:48:47.742Z,81.50
2018-07-03T06:51:16.199Z,80.90
2018-07-03T06:53:44.645Z,82.70
2018-07-03T06:56:13.090Z,83.40
2018-07-03T06:58:41.524Z,83.80
2018-07-03T07:01:10.026Z,85.20
2018-07-03T07:03:38.430Z,83.20
2018-07-03T07:06:06.854Z,85.20
2018-07-03T07:08:35.364Z,83.10
2018-07-03T07:11:03.847Z,83.20
2018-07-03T07:13:32.350Z,83.10
2018-07-03T07:16:00.821Z,84.00
2018-07-03T07:18:29.318Z,83.40
2018-07-03T07:20:57.745Z,83.40
2018-07-03T07:25:54.722Z,82.30
2018-07-03T07:30:51.554Z,83.90
2018-07-03T07:33:19.990Z,83.00
2018-07-03T07:35:48.438Z,84.00
2018-07-03T07:40:45.070Z,85.20
2018-07-03T07:43:13.503Z,83.90
2018-07-03T07:45:42.182Z,82.10
2018-07-03T07:48:10.634Z,84.00
2018-07-03T07:50:39.082Z,83.90
2018-07-03T07:53:07.552Z,84.50
2018-07-03T07:55:36.002Z,85.70
2018-07-03T07:58:04.862Z,86.90
2018-07-03T08:00:33.517Z,85.90
2018-07-03T08:03:01.981Z,83.10
2018-07-03T08:05:30.455Z,84.40
2018-07-03T08:07:59.113Z,84.90
2018-07-03T08:10:27.601Z,83.20
2018-07-03T08:12:56.090Z,81.10
2018-07-03T08:17:52.706Z,81.20
2018-07-03T08:20:21.162Z,82.40
2018-07-03T08:22:49.626Z,81.50
2018-07-03T08:25:18.095Z,81.60
2018-07-03T08:27:47.346Z,82.60
2018-07-03T08:30:16.624Z,81.80
2018-07-03T08:32:45.098Z,82.00
2018-07-03T08:35:13.534Z,83.00
2018-07-03T08:37:42.040Z,81.30
2018-07-03T08:40:10.510Z,82.00
2018-07-03T08:42:39.036Z,79.70
2018-07-03T08:45:07.991Z,81.90
2018-07-03T08:50:04.741Z,82.20
2018-07-03T08:55:01.462Z,81.20
2018-07-03T08:57:29.938Z,80.30
2018-07-03T08:59:58.354Z,79.10
2018-07-03T09:02:27.025Z,77.50
2018-07-03T09:04:55.467Z,81.80
2018-07-03T09:07:23.939Z,79.70
2018-07-03T09:09:52.411Z,80.30
2018-07-03T09:12:20.904Z,81.10
2018-07-03T09:14:49.365Z,81.60
2018-07-03T09:17:23.246Z,81.70
2018-07-03T09:19:52.401Z,79.90
2018-07-03T09:22:20.869Z,80.00
2018-07-03T09:24:49.334Z,78.80
2018-07-03T09:29:45.954Z,77.10
2018-07-03T09:32:14.410Z,77.40
2018-07-03T09:34:42.838Z,77.20
2018-07-03T09:37:11.325Z,76.70
2018-07-03T09:39:39.782Z,78.30
2018-07-03T09:42:08.481Z,77.30
2018-07-03T09:44:36.977Z,76.30
2018-07-03T09:47:05.599Z,76.60
2018-07-03T09:49:34.082Z,76.00
2018-07-03T09:52:02.630Z,77.00
2018-07-03T09:54:31.037Z,77.00
2018-07-03T09:56:59.493Z,78.40
2018-07-03T09:59:28.007Z,79.10
2018-07-03T10:01:56.424Z,78.90
2018-07-03T10:04:24.849Z,80.60
2018-07-03T10:06:53.310Z,80.40
2018-07-03T10:09:21.747Z,80.50
2018-07-03T10:11:50.237Z,80.20
2018-07-03T10:14:18.678Z,79.00
2018-07-03T10:19:15.273Z,79.10
2018-07-03T10:21:43.729Z,77.50
2018-07-03T10:24:12.223Z,80.20
2018-07-03T10:26:40.685Z,78.70
2018-07-03T10:29:09.405Z,76.90
2018-07-03T10:31:37.861Z,78.50
2018-07-03T10:34:06.281Z,78.30
2018-07-03T10:36:35.634Z,78.50
2018-07-03T10:39:06.398Z,81.90
2018-07-03T10:41:34.918Z,80.70
2018-07-03T10:44:03.382Z,80.60
2018-07-03T10:46:31.841Z,81.20
2018-07-03T10:49:00.533Z,81.50
2018-07-03T10:51:29.194Z,82.00
2018-07-03T10:53:57.658Z,81.80
2018-07-03T10:58:54.256Z,83.30
2018-07-03T11:01:22.726Z,84.80
2018-07-03T11:03:51.483Z,86.00
2018-07-03T11:06:20.170Z,85.60
2018-07-03T11:08:48.613Z,86.70
2018-07-03T11:11:17.074Z,88.00
2018-07-03T11:13:45.542Z,89.20
2018-07-03T11:16:13.989Z,88.50
2018-07-03T11:18:42.430Z,88.90
2018-07-03T11:21:10.929Z,88.60
2018-07-03T11:23:39.413Z,87.80
2018-07-03T11:26:07.901Z,89.70
2018-07-03T11:28:36.342Z,90.10
2018-07-03T11:31:04.817Z,90.80
2018-07-03T11:33:33.281Z,89.60
2018-07-03T11:36:01.726Z,90.10
2018-07-03T11:38:30.169Z,90.40
2018-07-03T11:40:58.809Z,91.10
2018-07-03T11:43:27.238Z,91.10
2018-07-03T11:45:55.711Z,92.30
2018-07-03T11:48:24.150Z,91.70
2018-07-03T11:50:52.639Z,91.80
2018-07-03T11:53:21.060Z,91.70
2018-07-03T11:55:49.512Z,92.00
2018-07-03T12:00:46.679Z,91.80
2018-07-03T12:05:43.566Z,92.00
2018-07-03T12:08:12.229Z,93.10
2018-07-03T12:13:09.179Z,92.60
2018-07-03T12:18:10.618Z,92.10
2018-07-03T12:20:39.138Z,92.40
2018-07-03T12:23:08.397Z,93.00
2018-07-03T12:25:37.559Z,92.00
2018-07-03T12:28:07.101Z,92.10
2018-07-03T12:30:35.622Z,92.10
2018-07-03T12:33:04.125Z,92.00
2018-07-03T12:35:32.603Z,92.30
2018-07-03T12:38:01.753Z,92.40
2018-07-03T12:40:30.410Z,92.20
2018-07-03T12:42:58.881Z,93.00
2018-07-03T12:45:27.341Z,92.90
2018-07-03T12:47:56.080Z,92.90
2018-07-03T12:50:25.043Z,92.30
2018-07-03T12:52:53.569Z,92.40
2018-07-03T12:55:22.382Z,93.30
2018-07-03T12:57:51.933Z,92.80
2018-07-03T13:00:20.483Z,92.40
2018-07-03T13:02:48.951Z,93.40
2018-07-03T13:05:17.462Z,92.50
2018-07-03T13:10:14.279Z,91.80
2018-07-03T13:12:42.754Z,90.30
2018-07-03T13:15:11.418Z,89.50
2018-07-03T13:17:42.508Z,90.80
2018-07-03T13:20:11.091Z,90.90
2018-07-03T13:22:39.544Z,91.00
2018-07-03T13:25:10.554Z,91.10
2018-07-03T13:27:39.053Z,90.10
2018-07-03T13:30:08.270Z,89.30
2018-07-03T13:32:36.790Z,88.10
2018-07-03T13:35:06.065Z,87.30
2018-07-03T13:37:34.550Z,88.20
2018-07-03T13:40:03.163Z,89.30
2018-07-03T13:42:31.866Z,86.20
2018-07-03T13:47:28.523Z,85.10
2018-07-03T13:49:56.973Z,83.50
2018-07-03T13:52:25.654Z,85.70
2018-07-03T13:54:54.135Z,85.00
2018-07-03T13:57:22.646Z,85.70
2018-07-03T13:59:51.105Z,85.70
2018-07-03T14:02:19.714Z,85.30
2018-07-03T14:04:48.198Z,85.40
2018-07-03T14:07:16.672Z,84.90
2018-07-03T14:09:45.164Z,86.00
2018-07-03T14:12:13.785Z,86.40
2018-07-03T14:14:42.293Z,86.20
2018-07-03T14:17:10.767Z,84.70
2018-07-03T14:19:39.254Z,84.50
2018-07-03T14:22:07.860Z,86.00
2018-07-03T14:24:36.322Z,85.20
2018-07-03T14:27:04.866Z,84.90
2018-07-03T14:29:33.350Z,86.30
2018-07-03T14:32:02.426Z,85.00
2018-07-03T14:34:30.917Z,84.50
2018-07-03T14:39:27.710Z,83.10
2018-07-03T14:41:56.234Z,84.30
2018-07-03T14:44:24.751Z,84.30
2018-07-03T14:46:53.266Z,84.30
2018-07-03T14:49:21.737Z,85.00
2018-07-03T14:51:50.174Z,86.20
2018-07-03T14:56:47.082Z,84.10
2018-07-03T14:59:15.542Z,84.80
2018-07-03T15:01:43.951Z,84.80
2018-07-03T15:04:12.402Z,85.80
2018-07-03T15:11:42.689Z,85.60
2018-07-03T15:14:11.387Z,86.00
2018-07-03T15:16:39.867Z,86.70
2018-07-03T15:19:13.669Z,87.00
2018-07-03T15:21:42.077Z,87.50
2018-07-03T15:24:11.582Z,87.40
2018-07-03T15:26:41.226Z,85.10
2018-07-03T15:29:12.132Z,85.80
2018-07-03T15:31:41.265Z,85.60
2018-07-03T15:34:10.682Z,85.80
2018-07-03T15:36:39.164Z,85.90
2018-07-03T15:39:11.276Z,84.70
2018-07-03T15:41:40.293Z,86.10
2018-07-03T15:45:22.653Z,85.00
2018-07-03T15:47:51.153Z,85.00
2018-07-03T15:50:19.689Z,84.90
2018-07-03T15:52:48.878Z,83.90
2018-07-03T15:57:45.518Z,84.80
2018-07-03T16:00:15.667Z,85.80
2018-07-03T16:05:31.437Z,84.50
2018-07-03T16:09:17.304Z,84.40
2018-07-03T16:11:45.732Z,83.20
2018-07-03T16:14:14.373Z,84.40
2018-07-03T16:16:43.205Z,85.00
2018-07-03T16:19:16.978Z,83.00
2018-07-03T16:21:45.406Z,83.70
2018-07-03T16:24:13.881Z,83.90
2018-07-03T16:26:42.372Z,84.10
2018-07-03T16:31:40.593Z,83.90
2018-07-03T16:34:09.065Z,83.70
2018-07-03T16:36:37.546Z,84.50
2018-07-03T16:39:09.687Z,84.20
2018-07-03T16:44:06.758Z,83.70
2018-07-03T16:46:35.258Z,83.30
2018-07-03T16:49:04.019Z,82.40
2018-07-03T16:51:32.483Z,83.10
2018-07-03T16:54:00.961Z,83.70
2018-07-03T16:56:29.417Z,84.90
2018-07-03T16:59:00.295Z,85.40
2018-07-03T17:01:28.766Z,84.50
2018-07-03T17:03:57.294Z,83.80
2018-07-03T17:06:25.768Z,87.10
2018-07-03T17:08:54.414Z,85.60
2018-07-03T17:11:22.888Z,84.30
2018-07-03T17:13:51.834Z,85.70
2018-07-03T17:16:20.236Z,86.70
2018-07-03T17:18:54.115Z,85.80
2018-07-03T17:21:22.627Z,85.10
2018-07-03T17:23:51.165Z,85.40
2018-07-03T17:26:19.855Z,86.80
2018-07-03T17:28:48.340Z,87.00
2018-07-03T17:31:16.803Z,87.30
2018-07-03T17:33:45.395Z,87.50
2018-07-03T17:36:13.826Z,88.10
2018-07-03T17:38:42.866Z,87.80
2018-07-03T17:41:22.459Z,89.20
2018-07-03T17:44:03.901Z,90.00
2018-07-03T17:46:32.510Z,90.40
2018-07-03T17:49:01.097Z,90.30
2018-07-03T17:53:57.801Z,90.60
2018-07-03T17:56:26.292Z,90.60
2018-07-03T17:58:54.921Z,91.00
2018-07-03T18:01:23.697Z,90.80
2018-07-03T18:06:20.736Z,90.70
2018-07-03T18:08:49.823Z,90.50
2018-07-03T18:11:18.538Z,90.80
2018-07-03T18:13:47.078Z,91.20
2018-07-03T18:16:15.582Z,91.10
2018-07-03T18:18:44.107Z,91.60
2018-07-03T18:21:13.103Z,91.90
2018-07-03T18:26:09.905Z,92.20
2018-07-03T18:28:38.423Z,92.60
2018-07-03T18:31:08.938Z,93.10
2018-07-03T18:33:39.782Z,93.60
2018-07-03T18:36:10.635Z,93.60
2018-07-03T18:38:39.158Z,93.30
2018-07-03T18:41:07.860Z,93.80
2018-07-03T18:43:36.354Z,94.40
2018-07-03T18:46:04.946Z,94.60
2018-07-03T18:48:33.519Z,94.10
2018-07-03T18:51:02.059Z,94.80
2018-07-03T18:53:30.546Z,94.30
2018-07-03T18:55:59.147Z,95.50
2018-07-03T18:58:27.757Z,95.70
2018-07-03T19:00:56.509Z,95.60
2018-07-03T19:03:25.066Z,95.60
2018-07-03T19:05:53.597Z,95.30
2018-07-03T19:08:22.108Z,95.50
2018-07-03T19:10:50.766Z,95.30
2018-07-03T19:13:19.518Z,95.70
2018-07-03T19:18:16.323Z,96.20
2018-07-03T19:20:44.940Z,95.80
2018-07-03T19:23:13.475Z,96.20
2018-07-03T19:25:41.982Z,96.40
2018-07-03T19:28:10.732Z,96.30
2018-07-03T19:30:39.267Z,96.20
2018-07-03T19:33:07.804Z,96.70
2018-07-03T19:35:36.315Z,96.40
2018-07-03T19:38:04.867Z,96.60
2018-07-03T19:40:33.356Z,96.50
2018-07-03T19:43:21.298Z,96.40
2018-07-03T19:45:50.481Z,97.00
2018-07-03T19:48:19.613Z,96.50
2018-07-03T19:50:49.403Z,97.00
2018-07-03T19:53:17.884Z,97.00
2018-07-03T19:55:47.367Z,97.30
2018-07-03T19:58:16.062Z,97.10
2018-07-03T20:03:12.718Z,97.00
2018-07-03T20:05:41.447Z,97.20
2018-07-03T20:08:10.040Z,97.70
2018-07-03T20:10:38.654Z,97.90
2018-07-03T20:13:08.855Z,97.80
2018-07-03T20:15:37.872Z,98.50
2018-07-03T20:18:06.777Z,99.00
2018-07-03T20:20:35.343Z,99.90
2018-07-03T20:23:03.933Z,99.70
2018-07-03T20:25:32.457Z,99.50
2018-07-03T20:28:01.345Z,99.40
2018-07-03T20:30:30.033Z,99.30
2018-07-03T20:32:58.635Z,99.30
2018-07-03T20:35:27.124Z,99.50
2018-07-03T20:38:03.332Z,99.70
2018-07-03T20:40:55.205Z,99.60
2018-07-03T20:43:24.467Z,99.00
2018-07-03T20:45:53.168Z,99.10
2018-07-03T20:50:49.857Z,99.10
2018-07-03T20:53:18.682Z,99.10
2018-07-03T20:55:47.212Z,98.80
2018-07-03T20:58:15.655Z,98.60
2018-07-03T21:00:44.115Z,98.90
2018-07-03T21:03:12.639Z,98.30
2018-07-03T21:05:41.188Z,98.10
2018-07-03T21:08:09.663Z,98.10
2018-07-03T21:10:38.209Z,98.20
2018-07-03T21:13:06.749Z,98.00
2018-07-03T21:15:35.213Z,98.00
2018-07-03T21:18:03.715Z,97.80
2018-07-03T21:20:32.177Z,97.80
2018-07-03T21:23:00.674Z,97.90
2018-07-03T21:25:29.116Z,97.90
2018-07-03T21:27:57.594Z,98.10
2018-07-03T21:30:26.350Z,98.10
2018-07-03T21:32:55.034Z,98.20
2018-07-03T21:35:23.546Z,98.20
2018-07-03T21:37:52.034Z,98.20
2018-07-03T21:40:20.506Z,98.10
2018-07-03T21:42:48.959Z,97.90
2018-07-03T21:45:17.484Z,97.80
2018-07-03T21:47:46.058Z,98.60
2018-07-03T21:50:14.507Z,98.40
2018-07-03T21:52:42.983Z,99.40
2018-07-03T21:55:11.436Z,99.60
2018-07-03T21:57:39.924Z,99.60
2018-07-03T22:00:09.168Z,99.80
2018-07-03T22:02:37.814Z,99.90
2018-07-03T22:05:06.442Z,99.90
2018-07-03T22:15:00.198Z,99.90
2018-07-03T22:17:28.788Z,99.90
2018-07-03T22:19:57.258Z,99.90
2018-07-03T22:22:25.699Z,99.90
2018-07-03T22:24:54.169Z,99.90
2018-07-03T22:27:22.618Z,99.90
2018-07-03T22:29:51.136Z,99.90
2018-07-03T22:34:48.030Z,99.90
2018-07-03T22:39:44.650Z,99.90
2018-07-03T22:42:13.100Z,99.90
2018-07-03T22:44:41.550Z,99.90
2018-07-03T22:47:10.063Z,99.90
2018-07-03T22:49:38.539Z,99.90
2018-07-03T22:52:07.203Z,99.90
2018-07-03T22:54:35.678Z,99.90
2018-07-03T22:57:04.146Z,99.90
2018-07-03T22:59:32.610Z,99.90
2018-07-03T23:02:01.049Z,99.90
2018-07-03T23:04:29.489Z,99.90
2018-07-03T23:06:57.963Z,99.90
2018-07-03T23:09:26.411Z,99.90
2018-07-03T23:11:54.873Z,99.90
2018-07-03T23:14:23.367Z,99.90
2018-07-03T23:16:51.822Z,99.90
2018-07-03T23:19:20.303Z,99.90
2018-07-03T23:21:48.781Z,99.90
2018-07-03T23:24:17.262Z,99.90
2018-07-03T23:26:45.729Z,99.90
2018-07-03T23:29:14.250Z,99.90
2018-07-03T23:31:43.053Z,99.90
2018-07-03T23:34:11.558Z,99.90
2018-07-03T23:36:40.038Z,99.90
2018-07-03T23:39:09.826Z,99.90
2018-07-03T23:41:38.371Z,99.90
2018-07-03T23:44:06.839Z,99.90
2018-07-03T23:46:46.533Z,99.90
2018-07-03T23:49:26.263Z,99.90
2018-07-03T23:52:05.901Z,99.90
2018-07-03T23:54:45.487Z,99.90
2018-07-03T23:57:25.186Z,99.90
